Terminal Aerodrome Forecast
Issued by NWS Atlanta, GA

Home | Current Version | Previous Version | Text Only | Print | Product List | Glossary On
Versions: 1 2 3 4 5 6 7 8 9 10 11 12 13 14 15 16 17 18 19 20 21 22 23 24 25 26 27 28 29 30 31 32 33 34 35 36 37 38 39 40
840
FTUS42 KFFC 041144 AAA
TAFATL
TAF AMD
KATL 041144Z 0412/0518 31008KT P6SM FEW050
     FM041400 31012G20KT P6SM SCT045
     FM042200 30014G22KT P6SM SCT070
     FM050000 30012KT P6SM VCSH BKN060 BKN250
     FM050300 30012KT P6SM BKN060 BKN250
     FM050900 30015G23KT P6SM SCT060
     FM051500 32018G27KT P6SM SCT060=

USA.gov is the U.S. government's official web portal to all federal, state and local government web resources and services.